Cathma — PJTL — position and weather

sailwx.info

Track history (hours):
 
Tides and Currents Weather Stations Pressure Air Temp Water Temp Dewpoint Dewpoint Depression Visibility Wind Speed Wind Dir Waves Ship Positions

Cathma

Last reported at 2014-Oct-02 05:30 UTC. Time now 2014-Oct-02 06:26 UTC.
Position N 49°29' W 000°10'.

Length 111 m; draft 3.8 m.

Type: Ship. MMSI: 306832000.

Date/timePositionNaut miles runAvg speedWind from/ knotsBaromVisibWave heightAir tempDewpointWater temp
2014-Oct-02 05:30N 49°29' W 000°10'0 0.0
2014-Oct-02 04:20N 49°29' W 000°10'0 0.0
2014-Oct-02 03:32N 49°29' W 000°10'0 0.0
2014-Oct-02 02:28N 49°29' W 000°10'0 0.0
2014-Oct-02 01:28N 49°29' W 000°10'0 0.0
2014-Oct-02 00:33N 49°29' W 000°10'0 0.0
2014-Oct-01 23:34N 49°29' W 000°10'0 0.0
2014-Oct-01 22:33N 49°29' W 000°10'1 1.3
2014-Oct-01 21:34N 49°29' W 000°08'1110.9
2014-Oct-01 20:33N 49°26' E 000°09'1514.0
2014-Oct-01 19:29N 49°29' E 000°31'2 0.1
2014-Sep-30 12:23N 49°27' E 000°33'1012.1
2014-Sep-30 11:32N 49°26' E 000°18'1313.1
2014-Sep-30 10:33N 49°28' W 000°02'1010.3
2014-Sep-30 09:33N 49°37' W 000°10'5711.1
2014-Sep-30 04:26N 50°31' E 000°17'1112.2
2014-Sep-30 03:33N 50°34' E 000°34'1111.2
2014-Sep-30 02:33N 50°40' E 000°49'3310.9
2014-Sep-29 23:33N 51°02' E 001°28'1414.1
2014-Sep-29 22:33N 51°11' E 001°43'1413.6
2014-Sep-29 21:33N 51°22' E 001°56'1210.5
2014-Sep-29 20:22N 51°21' E 002°16'1012.3
2014-Sep-29 19:33N 51°23' E 002°32'1211.7
2014-Sep-29 18:34N 51°22' E 002°50'1211.5
2014-Sep-29 17:33N 51°23' E 003°09'1111.4
2014-Sep-29 16:33N 51°25' E 003°27'10 9.8
2014-Sep-29 15:34N 51°28' E 003°42'0 0.0
2014-Sep-29 14:33N 51°28' E 003°42'0 0.0
2014-Sep-29 13:31N 51°28' E 003°42'0 0.0
2014-Sep-29 12:33N 51°28' E 003°42'0 0.0
2014-Sep-29 11:33N 51°28' E 003°42'0 0.0
2014-Sep-29 10:32N 51°28' E 003°42'0 0.0
2014-Sep-29 09:32N 51°28' E 003°42'0 0.0
2014-Sep-29 08:31N 51°28' E 003°42'0 0.0
2014-Sep-29 07:31N 51°28' E 003°42'0 0.0
2014-Sep-29 06:30N 51°28' E 003°42'0 0.0
2014-Sep-29 05:33N 51°28' E 003°42'0 0.0
2014-Sep-29 04:30N 51°28' E 003°42'0 0.0
2014-Sep-29 03:32N 51°28' E 003°42'0 0.0
2014-Sep-29 02:23N 51°28' E 003°42'0 0.0
2014-Sep-29 01:31N 51°28' E 003°42'0 0.0
2014-Sep-29 00:31N 51°28' E 003°42'0 0.0
2014-Sep-28 23:33N 51°28' E 003°42'0 0.0
2014-Sep-28 22:33N 51°28' E 003°42'0 0.0
2014-Sep-28 21:33N 51°28' E 003°42'0 0.0
2014-Sep-28 20:32N 51°28' E 003°42'0 0.0
2014-Sep-28 19:32N 51°28' E 003°42'0 0.0
2014-Sep-28 18:31N 51°28' E 003°42'0 0.0
2014-Sep-28 17:31N 51°28' E 003°42'0 0.0
2014-Sep-28 16:24N 51°28' E 003°42'0 0.0
2014-Sep-28 15:33N 51°28' E 003°42'0 0.0
2014-Sep-28 14:33N 51°28' E 003°42'0 0.0
2014-Sep-28 13:29N 51°28' E 003°42'0 0.0
2014-Sep-28 12:29N 51°28' E 003°42'0 0.0
2014-Sep-28 11:33N 51°28' E 003°42'7 7.1
2014-Sep-28 10:33N 51°29' E 003°30'1412.1
2014-Sep-28 09:23N 51°40' E 003°18'910.4
2014-Sep-28 08:32N 51°49' E 003°15'1010.5
2014-Sep-28 07:33N 51°59' E 003°19'10 9.7
2014-Sep-28 06:33N 52°09' E 003°22'9 9.1
2014-Sep-28 05:33N 52°18' E 003°24'9 8.8
2014-Sep-28 04:33N 52°26' E 003°27'9 8.3
2014-Sep-28 03:30N 52°35' E 003°29'8 8.2
2014-Sep-28 02:33N 52°41' E 003°37'9 8.7
2014-Sep-28 01:33N 52°48' E 003°45'9 9.2
2014-Sep-28 00:33N 52°56' E 003°54'20 9.3
2014-Sep-27 22:23N 53°09' E 004°20'7 8.7
2014-Sep-27 21:33N 53°15' E 004°26'10 9.1
2014-Sep-27 20:29N 53°24' E 004°32'16 8.2
2014-Sep-27 18:33N 53°33' E 004°54'9 8.8
2014-Sep-27 17:33N 53°36' E 005°07'8 8.0
2014-Sep-27 16:33N 53°39' E 005°20'9 8.6
2014-Sep-27 15:33N 53°41' E 005°34'9 8.6
2014-Sep-27 14:33N 53°44' E 005°48'62 8.8
2014-Sep-27 07:33N 54°00' E 007°29'9 8.8
2014-Sep-27 06:33N 54°02' E 007°44'10 9.6
2014-Sep-27 05:34N 54°01' E 007°60'10 9.6
2014-Sep-27 04:33N 53°60' E 008°16'1313.2
2014-Sep-27 03:33N 53°57' E 008°38'1010.4
2014-Sep-27 02:33N 53°50' E 008°52'9 9.3
2014-Sep-27 01:33N 53°53' E 009°07'2 2.2
2014-Sep-27 00:33N 53°54' E 009°10'30 7.4
2014-Sep-26 20:29N 54°18' E 009°42'5 5.4
2014-Sep-26 19:32N 54°22' E 009°48'7 7.5
2014-Sep-26 18:33N 54°21' E 010°00'5 4.9
2014-Sep-26 17:33N 54°22' E 010°08'8 7.6
2014-Sep-26 16:33N 54°28' E 010°16'1010.1
2014-Sep-26 15:33N 54°33' E 010°31'2210.1
2014-Sep-26 13:23N 54°36' E 011°08'810.0
2014-Sep-26 12:33N 54°33' E 011°21'10 9.9
2014-Sep-26 11:33N 54°29' E 011°37'1010.0
2014-Sep-26 10:33N 54°27' E 011°54'1010.0
2014-Sep-26 09:33N 54°28' E 012°10'1010.2
2014-Sep-26 08:33N 54°38' E 012°18'1210.5
2014-Sep-26 07:27N 54°44' E 012°35'2010.6
2014-Sep-26 05:32N 54°52' E 013°07'1210.0
2014-Sep-26 04:24N 54°57' E 013°25'810.0
2014-Sep-26 03:33N 54°60' E 013°39'1010.1
2014-Sep-26 02:33N 55°03' E 013°55'9 9.1
2014-Sep-26 01:33N 55°09' E 014°08'10 9.8
2014-Sep-26 00:33N 55°16' E 014°20'1010.0
2014-Sep-25 23:33N 55°24' E 014°30'10 9.7
2014-Sep-25 22:33N 55°30' E 014°44'13 9.8
2014-Sep-25 21:10N 55°37' E 015°04'6 9.9
2014-Sep-25 20:33N 55°40' E 015°14'20 9.7
2014-Sep-25 18:31N 55°50' E 015°44'12 9.7
2014-Sep-25 17:19N 55°55' E 016°02'810.0
2014-Sep-25 16:33N 55°59' E 016°14'71 9.9
2014-Sep-25 09:27N 57°00' E 017°19'910.3
2014-Sep-25 08:33N 57°09' E 017°25'1010.3
2014-Sep-25 07:33N 57°18' E 017°32'1010.1
2014-Sep-25 06:33N 57°28' E 017°39'  
Track history (hours):
 
Tides and Currents Weather Stations Pressure Air Temp Water Temp Dewpoint Dewpoint Depression Visibility Wind Speed Wind Dir Waves Ship Positions

Cathma

Last reported at 2014-Oct-02 05:30 UTC. Time now 2014-Oct-02 06:26 UTC.
Position N 49°29' W 000°10'.

Length 111 m; draft 3.8 m.

Type: Ship. MMSI: 306832000.

Date/timePositionNaut miles runAvg speedWind from/ knotsBaromVisibWave heightAir tempDewpointWater temp
2014-Oct-02 05:30N 49°29' W 000°10'0 0.0
2014-Oct-02 04:20N 49°29' W 000°10'0 0.0
2014-Oct-02 03:32N 49°29' W 000°10'0 0.0
2014-Oct-02 02:28N 49°29' W 000°10'0 0.0
2014-Oct-02 01:28N 49°29' W 000°10'0 0.0
2014-Oct-02 00:33N 49°29' W 000°10'0 0.0
2014-Oct-01 23:34N 49°29' W 000°10'0 0.0
2014-Oct-01 22:33N 49°29' W 000°10'1 1.3
2014-Oct-01 21:34N 49°29' W 000°08'1110.9
2014-Oct-01 20:33N 49°26' E 000°09'1514.0
2014-Oct-01 19:29N 49°29' E 000°31'2 0.1
2014-Sep-30 12:23N 49°27' E 000°33'1012.1
2014-Sep-30 11:32N 49°26' E 000°18'1313.1
2014-Sep-30 10:33N 49°28' W 000°02'1010.3
2014-Sep-30 09:33N 49°37' W 000°10'5711.1
2014-Sep-30 04:26N 50°31' E 000°17'1112.2
2014-Sep-30 03:33N 50°34' E 000°34'1111.2
2014-Sep-30 02:33N 50°40' E 000°49'3310.9
2014-Sep-29 23:33N 51°02' E 001°28'1414.1
2014-Sep-29 22:33N 51°11' E 001°43'1413.6
2014-Sep-29 21:33N 51°22' E 001°56'1210.5
2014-Sep-29 20:22N 51°21' E 002°16'1012.3
2014-Sep-29 19:33N 51°23' E 002°32'1211.7
2014-Sep-29 18:34N 51°22' E 002°50'1211.5
2014-Sep-29 17:33N 51°23' E 003°09'1111.4
2014-Sep-29 16:33N 51°25' E 003°27'10 9.8
2014-Sep-29 15:34N 51°28' E 003°42'0 0.0
2014-Sep-29 14:33N 51°28' E 003°42'0 0.0
2014-Sep-29 13:31N 51°28' E 003°42'0 0.0
2014-Sep-29 12:33N 51°28' E 003°42'0 0.0
2014-Sep-29 11:33N 51°28' E 003°42'0 0.0
2014-Sep-29 10:32N 51°28' E 003°42'0 0.0
2014-Sep-29 09:32N 51°28' E 003°42'0 0.0
2014-Sep-29 08:31N 51°28' E 003°42'0 0.0
2014-Sep-29 07:31N 51°28' E 003°42'0 0.0
2014-Sep-29 06:30N 51°28' E 003°42'0 0.0
2014-Sep-29 05:33N 51°28' E 003°42'0 0.0
2014-Sep-29 04:30N 51°28' E 003°42'0 0.0
2014-Sep-29 03:32N 51°28' E 003°42'0 0.0
2014-Sep-29 02:23N 51°28' E 003°42'0 0.0
2014-Sep-29 01:31N 51°28' E 003°42'0 0.0
2014-Sep-29 00:31N 51°28' E 003°42'0 0.0
2014-Sep-28 23:33N 51°28' E 003°42'0 0.0
2014-Sep-28 22:33N 51°28' E 003°42'0 0.0
2014-Sep-28 21:33N 51°28' E 003°42'0 0.0
2014-Sep-28 20:32N 51°28' E 003°42'0 0.0
2014-Sep-28 19:32N 51°28' E 003°42'0 0.0
2014-Sep-28 18:31N 51°28' E 003°42'0 0.0
2014-Sep-28 17:31N 51°28' E 003°42'0 0.0
2014-Sep-28 16:24N 51°28' E 003°42'0 0.0
2014-Sep-28 15:33N 51°28' E 003°42'0 0.0
2014-Sep-28 14:33N 51°28' E 003°42'0 0.0
2014-Sep-28 13:29N 51°28' E 003°42'0 0.0
2014-Sep-28 12:29N 51°28' E 003°42'0 0.0
2014-Sep-28 11:33N 51°28' E 003°42'7 7.1
2014-Sep-28 10:33N 51°29' E 003°30'1412.1
2014-Sep-28 09:23N 51°40' E 003°18'910.4
2014-Sep-28 08:32N 51°49' E 003°15'1010.5
2014-Sep-28 07:33N 51°59' E 003°19'10 9.7
2014-Sep-28 06:33N 52°09' E 003°22'9 9.1
2014-Sep-28 05:33N 52°18' E 003°24'9 8.8
2014-Sep-28 04:33N 52°26' E 003°27'9 8.3
2014-Sep-28 03:30N 52°35' E 003°29'8 8.2
2014-Sep-28 02:33N 52°41' E 003°37'9 8.7
2014-Sep-28 01:33N 52°48' E 003°45'9 9.2
2014-Sep-28 00:33N 52°56' E 003°54'20 9.3
2014-Sep-27 22:23N 53°09' E 004°20'7 8.7
2014-Sep-27 21:33N 53°15' E 004°26'10 9.1
2014-Sep-27 20:29N 53°24' E 004°32'16 8.2
2014-Sep-27 18:33N 53°33' E 004°54'9 8.8
2014-Sep-27 17:33N 53°36' E 005°07'8 8.0
2014-Sep-27 16:33N 53°39' E 005°20'9 8.6
2014-Sep-27 15:33N 53°41' E 005°34'9 8.6
2014-Sep-27 14:33N 53°44' E 005°48'62 8.8
2014-Sep-27 07:33N 54°00' E 007°29'9 8.8
2014-Sep-27 06:33N 54°02' E 007°44'10 9.6
2014-Sep-27 05:34N 54°01' E 007°60'10 9.6
2014-Sep-27 04:33N 53°60' E 008°16'1313.2
2014-Sep-27 03:33N 53°57' E 008°38'1010.4
2014-Sep-27 02:33N 53°50' E 008°52'9 9.3
2014-Sep-27 01:33N 53°53' E 009°07'2 2.2
2014-Sep-27 00:33N 53°54' E 009°10'30 7.4
2014-Sep-26 20:29N 54°18' E 009°42'5 5.4
2014-Sep-26 19:32N 54°22' E 009°48'7 7.5
2014-Sep-26 18:33N 54°21' E 010°00'5 4.9
2014-Sep-26 17:33N 54°22' E 010°08'8 7.6
2014-Sep-26 16:33N 54°28' E 010°16'1010.1
2014-Sep-26 15:33N 54°33' E 010°31'2210.1
2014-Sep-26 13:23N 54°36' E 011°08'810.0
2014-Sep-26 12:33N 54°33' E 011°21'10 9.9
2014-Sep-26 11:33N 54°29' E 011°37'1010.0
2014-Sep-26 10:33N 54°27' E 011°54'1010.0
2014-Sep-26 09:33N 54°28' E 012°10'1010.2
2014-Sep-26 08:33N 54°38' E 012°18'1210.5
2014-Sep-26 07:27N 54°44' E 012°35'2010.6
2014-Sep-26 05:32N 54°52' E 013°07'1210.0
2014-Sep-26 04:24N 54°57' E 013°25'810.0
2014-Sep-26 03:33N 54°60' E 013°39'1010.1
2014-Sep-26 02:33N 55°03' E 013°55'9 9.1
2014-Sep-26 01:33N 55°09' E 014°08'10 9.8
2014-Sep-26 00:33N 55°16' E 014°20'1010.0
2014-Sep-25 23:33N 55°24' E 014°30'10 9.7
2014-Sep-25 22:33N 55°30' E 014°44'13 9.8
2014-Sep-25 21:10N 55°37' E 015°04'6 9.9
2014-Sep-25 20:33N 55°40' E 015°14'20 9.7
2014-Sep-25 18:31N 55°50' E 015°44'12 9.7
2014-Sep-25 17:19N 55°55' E 016°02'810.0
2014-Sep-25 16:33N 55°59' E 016°14'71 9.9
2014-Sep-25 09:27N 57°00' E 017°19'910.3
2014-Sep-25 08:33N 57°09' E 017°25'1010.3
2014-Sep-25 07:33N 57°18' E 017°32'1010.1
2014-Sep-25 06:33N 57°28' E 017°39'  

Dump ship's entire track history